Time;durP1;ratioP1;P1;durP2;ratioP2;P2;SDS_P1;SDS_P2;PMS_P1;PMS_P2;Temp;Humidity;BMP_temperature;BMP_pressure;BME280_temperature;BME280_humidity;BME280_pressure;Samples;Min_cycle;Max_cycle;Signal;HPM_P1;HPM_P2
2022/05/24 00:01:25;;;;;;;7.03;4.05;;;24.70;85.50;;;;;;6218313;23;20078;-92
2022/05/24 00:03:51;;;;;;;12.45;6.90;;;24.70;85.80;;;;;;6217874;23;20078;-91
2022/05/24 00:06:17;;;;;;;8.52;4.45;;;24.60;85.70;;;;;;6217603;23;20423;-91
2022/05/24 00:08:44;;;;;;;7.80;4.25;;;24.60;85.40;;;;;;6217358;23;20001;-90
2022/05/24 00:11:10;;;;;;;6.60;3.55;;;24.70;85.20;;;;;;6216834;23;20056;-88
2022/05/24 00:13:36;;;;;;;17.95;7.18;;;24.70;84.80;;;;;;6217464;23;20004;-87
2022/05/24 00:16:02;;;;;;;5.28;3.20;;;24.60;85.30;;;;;;6217640;23;20005;-91
2022/05/24 00:18:30;;;;;;;8.23;3.75;;;24.60;85.40;;;;;;6217138;23;20004;-88
2022/05/24 00:20:59;;;;;;;18.55;6.15;;;24.60;85.20;;;;;;6216920;23;20362;-89
2022/05/24 00:23:28;;;;;;;8.00;4.35;;;24.60;85.30;;;;;;6216746;23;20005;-89
2022/05/24 00:25:56;;;;;;;7.38;4.50;;;24.50;85.60;;;;;;6216603;23;20434;-87
2022/05/24 00:28:25;;;;;;;12.68;6.63;;;24.50;85.70;;;;;;6216477;23;20355;-88
2022/05/24 00:30:52;;;;;;;6.10;3.92;;;24.30;85.70;;;;;;6216517;23;20030;-86
2022/05/24 00:33:18;;;;;;;7.63;4.57;;;24.40;86.20;;;;;;6215366;23;20000;-87
2022/05/24 00:35:45;;;;;;;7.05;4.28;;;24.40;85.70;;;;;;6215994;23;20034;-87
2022/05/24 00:38:16;;;;;;;8.20;3.53;;;24.40;85.50;;;;;;6215665;23;20001;-85
2022/05/24 00:40:44;;;;;;;8.20;3.75;;;24.40;85.50;;;;;;6216695;23;20012;-87
2022/05/24 00:43:37;;;;;;;6.40;3.47;;;24.40;85.20;;;;;;6216372;23;20036;-90
2022/05/24 00:46:35;;;;;;;6.47;4.47;;;24.40;85.00;;;;;;6216569;23;20423;-89
2022/05/24 00:49:04;;;;;;;6.72;3.60;;;24.40;85.20;;;;;;6215901;23;20013;-88
2022/05/24 00:51:39;;;;;;;10.18;4.13;;;24.50;84.80;;;;;;6215637;23;20420;-87
2022/05/24 00:54:05;;;;;;;4.97;3.20;;;24.50;84.80;;;;;;6216799;23;20005;-88
2022/05/24 00:56:49;;;;;;;7.10;3.63;;;24.40;84.90;;;;;;6189657;23;20008;-88
2022/05/24 00:59:37;;;;;;;9.18;4.85;;;24.40;85.10;;;;;;6216241;23;20005;-88
2022/05/24 01:02:03;;;;;;;8.38;3.53;;;24.30;85.30;;;;;;6190125;23;20063;-86
2022/05/24 01:04:30;;;;;;;8.15;3.60;;;24.40;85.00;;;;;;6215689;23;20442;-85
2022/05/24 01:06:56;;;;;;;10.90;5.78;;;24.50;84.90;;;;;;6214847;23;20000;-83
2022/05/24 01:09:53;;;;;;;8.73;4.35;;;24.30;85.40;;;;;;6215638;23;20007;-85
2022/05/24 01:12:27;;;;;;;6.18;3.80;;;24.30;85.50;;;;;;6215388;23;20039;-84
2022/05/24 01:14:56;;;;;;;8.38;3.75;;;24.30;85.60;;;;;;6215766;23;20419;-84
2022/05/24 01:17:22;;;;;;;9.02;4.10;;;24.30;85.30;;;;;;6214832;23;20003;-85
2022/05/24 01:19:49;;;;;;;6.88;4.13;;;24.30;85.10;;;;;;6214926;23;20001;-84
2022/05/24 01:22:38;;;;;;;8.52;3.80;;;24.40;85.30;;;;;;6189207;23;20043;-85
2022/05/24 01:25:26;;;;;;;8.77;4.40;;;24.30;85.50;;;;;;6215528;23;20050;-85
2022/05/24 01:27:51;;;;;;;13.98;5.70;;;24.40;85.40;;;;;;6214685;23;20045;-85
2022/05/24 01:30:17;;;;;;;7.05;3.85;;;24.40;85.10;;;;;;6215532;23;20040;-83
2022/05/24 01:38:20;;;;;;;12.35;6.07;;;24.40;84.20;;;;;;6214776;23;20016;-83
2022/05/24 01:40:48;;;;;;;4.47;3.22;;;24.30;84.30;;;;;;6189010;23;20442;-84
2022/05/24 01:43:19;;;;;;;7.05;3.45;;;24.40;84.40;;;;;;6215267;23;20005;-84
2022/05/24 01:45:51;;;;;;;5.35;3.58;;;24.30;84.10;;;;;;6216251;23;20003;-84
2022/05/24 01:48:22;;;;;;;9.98;4.55;;;24.30;84.40;;;;;;6216525;23;20415;-83
2022/05/24 01:50:51;;;;;;;6.18;3.63;;;24.10;84.60;;;;;;6216554;23;20047;-83
2022/05/24 01:53:21;;;;;;;7.07;3.97;;;24.20;84.50;;;;;;6217301;23;20012;-84
2022/05/24 01:55:57;;;;;;;9.77;3.85;;;24.10;84.50;;;;;;6216649;23;20009;-84
2022/05/24 01:58:26;;;;;;;8.15;4.20;;;24.00;84.70;;;;;;6217798;23;20075;-85
2022/05/24 02:01:05;;;;;;;9.52;4.95;;;24.10;84.60;;;;;;6216255;23;20084;-85
2022/05/24 02:03:31;;;;;;;5.55;3.28;;;24.10;84.10;;;;;;6217445;23;20087;-85
2022/05/24 02:05:58;;;;;;;6.32;3.80;;;24.10;83.80;;;;;;6217918;23;20024;-86
2022/05/24 02:08:24;;;;;;;7.15;4.13;;;24.20;83.30;;;;;;6218645;23;20023;-88
2022/05/24 02:10:57;;;;;;;7.88;3.97;;;24.10;83.40;;;;;;6218297;23;20415;-86
2022/05/24 02:13:30;;;;;;;9.13;4.38;;;24.10;83.70;;;;;;6218010;23;20000;-86
2022/05/24 02:15:59;;;;;;;9.70;3.50;;;24.20;83.80;;;;;;6217734;23;20346;-86
2022/05/24 02:18:27;;;;;;;7.18;4.28;;;24.20;83.30;;;;;;6217229;23;20048;-84
2022/05/24 02:20:52;;;;;;;7.53;3.72;;;24.10;82.90;;;;;;6216412;23;20005;-85
2022/05/24 02:23:19;;;;;;;11.00;3.88;;;24.10;83.00;;;;;;6217135;23;20307;-86
2022/05/24 02:25:57;;;;;;;10.68;4.53;;;24.20;82.70;;;;;;6217073;23;20000;-83
2022/05/24 02:28:29;;;;;;;7.43;3.40;;;24.20;82.30;;;;;;6217263;23;20347;-84
2022/05/24 02:31:00;;;;;;;8.85;4.60;;;24.20;82.20;;;;;;6216578;23;20001;-85
2022/05/24 02:33:27;;;;;;;5.78;3.42;;;24.10;81.20;;;;;;6217240;23;20493;-85
2022/05/24 02:35:53;;;;;;;8.40;4.15;;;24.10;81.50;;;;;;6217133;23;20008;-84
2022/05/24 02:38:19;;;;;;;8.95;4.25;;;24.10;81.30;;;;;;6218116;23;20442;-87
2022/05/24 02:43:29;;;;;;;4.57;3.13;;;24.10;81.20;;;;;;6217930;23;20043;-87
2022/05/24 02:45:56;;;;;;;10.07;4.80;;;24.10;81.20;;;;;;6217679;23;19996;-91
2022/05/24 02:48:21;;;;;;;7.07;3.40;;;24.00;80.80;;;;;;6218102;23;20004;-89
2022/05/24 02:50:47;;;;;;;9.48;5.38;;;24.00;80.60;;;;;;6218310;23;19997;-89
2022/05/24 02:53:13;;;;;;;11.00;5.97;;;24.10;79.80;;;;;;6218425;23;20012;-89
2022/05/24 02:55:39;;;;;;;12.45;5.05;;;24.10;79.70;;;;;;6191300;23;20312;-87
2022/05/24 02:58:05;;;;;;;10.98;5.00;;;24.00;80.00;;;;;;6216594;23;20004;-88
2022/05/24 03:00:31;;;;;;;6.07;3.55;;;24.00;80.20;;;;;;6216252;23;20019;-87
2022/05/24 03:02:57;;;;;;;7.00;4.22;;;24.00;80.40;;;;;;6216407;23;20039;-86
2022/05/24 03:05:24;;;;;;;13.70;6.38;;;24.00;80.60;;;;;;6217196;23;20000;-87
2022/05/24 03:10:35;;;;;;;6.38;3.70;;;24.00;80.90;;;;;;6216876;23;20012;-85
2022/05/24 03:15:46;;;;;;;8.98;4.07;;;24.00;81.40;;;;;;6217183;23;20023;-86
2022/05/24 03:18:14;;;;;;;7.90;3.80;;;24.00;82.00;;;;;;6217107;23;20004;-86
2022/05/24 03:20:43;;;;;;;9.82;4.68;;;24.00;81.90;;;;;;6217106;23;20015;-89
2022/05/24 03:23:10;;;;;;;19.33;7.17;;;24.00;82.80;;;;;;6217100;23;20396;-86
2022/05/24 03:25:36;;;;;;;13.18;6.25;;;24.00;83.10;;;;;;6216999;23;20067;-87
2022/05/24 03:28:04;;;;;;;8.70;4.70;;;23.90;83.30;;;;;;6216333;23;20005;-86
2022/05/24 03:30:32;;;;;;;8.10;4.68;;;23.90;83.20;;;;;;6216375;23;20004;-86
2022/05/24 03:32:57;;;;;;;11.70;4.90;;;23.90;83.50;;;;;;6217386;23;20008;-87
2022/05/24 03:35:24;;;;;;;8.70;4.60;;;23.90;83.60;;;;;;6216411;23;20005;-85
2022/05/24 03:37:50;;;;;;;9.38;5.25;;;24.00;83.90;;;;;;6216466;23;20008;-88
2022/05/24 03:40:17;;;;;;;9.50;4.35;;;23.90;84.10;;;;;;6190429;23;20005;-88
2022/05/24 03:42:44;;;;;;;9.32;4.43;;;24.00;83.80;;;;;;6216843;23;20001;-86
2022/05/24 03:45:10;;;;;;;17.88;7.25;;;24.00;83.70;;;;;;6216922;23;20007;-87
2022/05/24 03:47:37;;;;;;;10.10;5.03;;;24.00;84.40;;;;;;6216320;23;20004;-86
2022/05/24 03:50:08;;;;;;;14.77;5.72;;;24.00;84.30;;;;;;6216096;23;20050;-89
2022/05/24 03:52:33;;;;;;;12.10;4.97;;;23.90;84.90;;;;;;6216483;23;20000;-88
2022/05/24 03:54:59;;;;;;;7.07;3.90;;;23.90;85.10;;;;;;6216653;23;20055;-90
2022/05/24 04:00:10;;;;;;;8.43;4.40;;;24.00;84.60;;;;;;6217546;23;20039;-90
2022/05/24 04:02:35;;;;;;;13.57;4.80;;;23.90;84.90;;;;;;6190759;23;20016;-91
2022/05/24 04:05:01;;;;;;;9.70;4.10;;;24.00;84.80;;;;;;6219489;23;20004;-92
2022/05/24 04:07:27;;;;;;;13.93;5.18;;;24.00;84.90;;;;;;6217897;23;20038;-90
2022/05/24 04:09:52;;;;;;;12.82;4.82;;;24.00;85.20;;;;;;6217987;23;19997;-90
2022/05/24 04:12:18;;;;;;;10.35;4.57;;;23.90;85.50;;;;;;6220017;23;20131;-89
2022/05/24 04:14:44;;;;;;;14.18;5.55;;;23.90;86.20;;;;;;6220742;23;20000;-88
2022/05/24 04:17:09;;;;;;;9.52;5.05;;;24.00;86.20;;;;;;6219307;23;20015;-88
2022/05/24 04:19:35;;;;;;;12.77;5.25;;;23.90;86.40;;;;;;6219377;23;20079;-88
2022/05/24 04:22:01;;;;;;;8.02;3.88;;;23.90;86.40;;;;;;6218768;23;20001;-90
2022/05/24 04:24:26;;;;;;;11.48;4.38;;;23.80;86.20;;;;;;6217673;23;20001;-91
2022/05/24 04:26:52;;;;;;;17.83;5.55;;;23.90;86.40;;;;;;6217431;23;20001;-89
2022/05/24 04:29:18;;;;;;;9.43;4.22;;;23.80;86.70;;;;;;6217083;23;20000;-90
2022/05/24 04:31:44;;;;;;;9.13;4.30;;;23.90;86.40;;;;;;6189238;23;20004;-90
2022/05/24 04:34:09;;;;;;;8.45;4.07;;;23.90;86.10;;;;;;6216391;23;20423;-90
2022/05/24 04:36:35;;;;;;;9.27;4.53;;;24.00;85.90;;;;;;6215919;23;20084;-80
2022/05/24 04:39:01;;;;;;;7.65;3.53;;;24.00;86.40;;;;;;6215150;23;20004;-79
2022/05/24 04:44:11;;;;;;;9.93;4.07;;;24.10;86.30;;;;;;6214874;23;20020;-79
2022/05/24 04:49:22;;;;;;;18.13;6.18;;;23.90;86.40;;;;;;6213778;23;20146;-80
2022/05/24 04:51:51;;;;;;;16.73;5.97;;;24.00;86.10;;;;;;6214362;23;20028;-80
2022/05/24 04:54:17;;;;;;;11.52;4.18;;;23.90;86.40;;;;;;6214564;23;20058;-79
2022/05/24 04:56:47;;;;;;;9.00;4.25;;;23.90;86.00;;;;;;6188762;23;20001;-80
2022/05/24 04:59:17;;;;;;;10.88;5.43;;;23.90;86.30;;;;;;6213184;23;20066;-81
2022/05/24 05:01:45;;;;;;;7.22;3.80;;;23.90;86.30;;;;;;6185775;23;20032;-82
2022/05/24 05:04:11;;;;;;;8.63;4.35;;;23.90;86.00;;;;;;6187013;23;20008;-92
2022/05/24 05:06:41;;;;;;;10.82;4.85;;;24.00;85.90;;;;;;6214578;23;19996;-81
2022/05/24 05:09:09;;;;;;;11.48;4.43;;;24.00;86.20;;;;;;6214508;23;20005;-82
2022/05/24 05:11:35;;;;;;;11.02;4.68;;;24.00;86.10;;;;;;6214266;23;19997;-82
2022/05/24 05:14:01;;;;;;;13.98;5.30;;;24.10;86.90;;;;;;6215575;23;20001;-81
2022/05/24 05:16:27;;;;;;;11.10;4.75;;;24.10;87.10;;;;;;6214851;23;20012;-81
2022/05/24 05:18:52;;;;;;;17.73;5.80;;;24.10;86.90;;;;;;6215709;23;20004;-80
2022/05/24 05:21:18;;;;;;;9.50;4.43;;;24.00;87.10;;;;;;6214296;23;20004;-82
2022/05/24 05:23:44;;;;;;;8.57;4.38;;;24.00;86.90;;;;;;6213982;23;20001;-80
2022/05/24 05:26:10;;;;;;;8.93;3.88;;;24.10;86.90;;;;;;6188289;23;20001;-84
2022/05/24 05:28:36;;;;;;;17.02;5.97;;;24.10;86.50;;;;;;6213057;23;20007;-85
2022/05/24 05:31:17;;;;;;;10.45;4.82;;;24.10;86.70;;;;;;6214031;23;20008;-87
2022/05/24 05:33:44;;;;;;;11.23;5.30;;;24.10;86.50;;;;;;6215567;23;20054;-86
2022/05/24 05:36:10;;;;;;;9.00;4.45;;;24.10;86.50;;;;;;6214710;23;20004;-80
2022/05/24 05:38:36;;;;;;;10.15;4.93;;;24.20;86.30;;;;;;6213864;23;20036;-78
2022/05/24 05:41:04;;;;;;;17.35;7.05;;;24.20;86.10;;;;;;6215160;23;20024;-87
2022/05/24 05:43:29;;;;;;;10.35;4.88;;;24.20;85.80;;;;;;6214033;23;20004;-86
2022/05/24 05:45:57;;;;;;;11.35;4.35;;;24.30;85.70;;;;;;6214898;23;19997;-83
2022/05/24 05:48:23;;;;;;;7.10;3.92;;;24.20;85.60;;;;;;6214881;23;20000;-81
2022/05/24 05:50:49;;;;;;;9.77;4.55;;;24.30;85.50;;;;;;6214813;23;20004;-82
2022/05/24 05:53:16;;;;;;;11.20;5.75;;;24.30;85.30;;;;;;6214721;23;20058;-87
2022/05/24 05:55:42;;;;;;;14.88;4.95;;;24.30;85.40;;;;;;6215423;23;20031;-82
2022/05/24 05:58:08;;;;;;;15.27;5.53;;;24.20;85.50;;;;;;6215040;23;20419;-77
2022/05/24 06:00:35;;;;;;;9.27;4.40;;;24.30;85.50;;;;;;6214817;23;20012;-78
2022/05/24 06:03:01;;;;;;;22.73;7.03;;;24.30;85.70;;;;;;6215754;23;20013;-83
2022/05/24 06:05:27;;;;;;;20.23;6.97;;;24.10;86.00;;;;;;6188478;23;20079;-78
2022/05/24 06:08:00;;;;;;;18.70;6.53;;;24.10;86.60;;;;;;6215603;23;20007;-82
2022/05/24 06:10:28;;;;;;;15.07;5.90;;;24.10;86.70;;;;;;6189760;23;20030;-87
2022/05/24 06:12:56;;;;;;;16.38;5.82;;;24.20;86.40;;;;;;6215515;23;20367;-88
2022/05/24 06:15:25;;;;;;;10.57;4.72;;;24.20;86.10;;;;;;6215481;23;20005;-88
2022/05/24 06:17:52;;;;;;;14.23;4.97;;;24.30;86.00;;;;;;6188751;23;20005;-88
2022/05/24 06:20:20;;;;;;;14.82;5.53;;;24.40;86.00;;;;;;6188407;23;20383;-93
2022/05/24 06:22:46;;;;;;;20.90;6.40;;;24.30;85.80;;;;;;6215102;23;20001;-80
2022/05/24 06:25:12;;;;;;;13.52;4.68;;;24.40;85.60;;;;;;6214509;23;20077;-82
2022/05/24 06:27:38;;;;;;;11.00;4.53;;;24.40;85.60;;;;;;6214266;23;20032;-83
2022/05/24 06:30:05;;;;;;;10.07;4.05;;;24.50;85.30;;;;;;6214280;23;20063;-82
2022/05/24 06:32:51;;;;;;;15.77;4.95;;;24.60;85.20;;;;;;6215860;23;20008;-82
2022/05/24 06:35:19;;;;;;;15.10;4.88;;;24.70;85.30;;;;;;6191261;23;20001;-82
2022/05/24 06:37:45;;;;;;;8.82;3.75;;;24.80;84.60;;;;;;6220991;23;20423;-82
2022/05/24 06:40:14;;;;;;;10.38;4.30;;;24.90;84.50;;;;;;6227493;23;20005;-83
2022/05/24 06:42:40;;;;;;;8.32;3.83;;;25.00;84.20;;;;;;6231711;23;19988;-83
2022/05/24 06:45:08;;;;;;;7.55;3.90;;;25.10;84.10;;;;;;6218293;23;20028;-88
2022/05/24 06:47:34;;;;;;;7.68;3.20;;;25.20;83.30;;;;;;6189135;23;20439;-88
2022/05/24 06:50:00;;;;;;;8.60;3.60;;;25.20;82.30;;;;;;6216026;23;20004;-88
2022/05/24 06:52:26;;;;;;;10.05;4.43;;;25.20;80.60;;;;;;6217369;23;20032;-87
2022/05/24 06:54:53;;;;;;;10.43;4.57;;;25.30;77.90;;;;;;6217880;23;19996;-90
2022/05/24 06:57:19;;;;;;;5.32;3.30;;;25.30;77.50;;;;;;6217642;23;20001;-88
2022/05/24 07:02:29;;;;;;;9.48;3.85;;;25.30;77.40;;;;;;6217231;23;20441;-87
2022/05/24 07:05:00;;;;;;;9.35;3.33;;;25.30;74.60;;;;;;6215307;23;20001;-87
2022/05/24 07:07:27;;;;;;;5.18;2.40;;;25.30;74.90;;;;;;6216967;23;19997;-87
2022/05/24 07:09:53;;;;;;;5.07;2.78;;;25.40;75.30;;;;;;6217308;23;20028;-87
2022/05/24 07:12:21;;;;;;;4.57;2.10;;;25.30;73.30;;;;;;6217125;23;20008;-88
2022/05/24 07:14:47;;;;;;;2.88;2.13;;;25.40;74.30;;;;;;6217072;23;20005;-87
2022/05/24 07:17:13;;;;;;;4.25;2.30;;;25.40;74.60;;;;;;6217159;23;20001;-88
2022/05/24 07:19:39;;;;;;;5.18;2.55;;;25.40;70.80;;;;;;6217040;23;20005;-87
2022/05/24 07:22:06;;;;;;;4.75;2.65;;;25.40;69.30;;;;;;6217089;23;20032;-88
2022/05/24 07:24:32;;;;;;;5.55;2.30;;;25.40;71.00;;;;;;6217065;23;20330;-88
2022/05/24 07:26:58;;;;;;;4.35;2.30;;;25.40;69.70;;;;;;6190241;23;20005;-88
2022/05/24 07:29:24;;;;;;;4.10;2.05;;;25.40;69.80;;;;;;6216624;23;20460;-87
2022/05/24 07:31:50;;;;;;;5.32;2.13;;;25.40;70.20;;;;;;6217430;23;20071;-87
2022/05/24 07:34:16;;;;;;;4.20;2.10;;;25.40;70.70;;;;;;6217362;23;20001;-88
2022/05/24 07:36:42;;;;;;;2.88;1.80;;;25.50;71.30;;;;;;6217518;23;20054;-88
2022/05/24 07:39:08;;;;;;;5.03;1.85;;;25.60;70.70;;;;;;6217159;23;20004;-88
2022/05/24 07:47:06;;;;;;;6.25;2.15;;;25.70;69.90;;;;;;6217706;23;20058;-87
2022/05/24 07:49:33;;;;;;;5.25;2.30;;;25.70;69.00;;;;;;6216738;23;19996;-88
2022/05/24 07:51:59;;;;;;;5.47;2.47;;;25.80;68.70;;;;;;6221058;23;19997;-88
2022/05/24 07:54:25;;;;;;;6.20;2.30;;;25.90;68.50;;;;;;6224213;23;20249;-88
2022/05/24 07:56:51;;;;;;;5.50;2.28;;;25.90;69.40;;;;;;6222688;23;20019;-89
2022/05/24 07:59:17;;;;;;;3.97;2.38;;;25.90;68.80;;;;;;6222464;23;20011;-87
2022/05/24 08:01:46;;;;;;;9.52;3.08;;;26.00;69.20;;;;;;6209047;23;20008;-86
2022/05/24 08:04:13;;;;;;;9.63;2.47;;;26.00;68.20;;;;;;6213666;23;20008;-86
2022/05/24 08:06:39;;;;;;;3.83;2.05;;;26.00;68.20;;;;;;6237696;23;19996;-89
2022/05/24 08:09:04;;;;;;;4.72;2.35;;;26.00;68.40;;;;;;6217480;23;20003;-89
2022/05/24 08:11:30;;;;;;;5.05;1.73;;;26.00;68.40;;;;;;6216955;23;20344;-88
2022/05/24 08:13:58;;;;;;;7.13;2.90;;;26.10;67.90;;;;;;6217370;23;20005;-88
2022/05/24 08:16:25;;;;;;;5.80;2.80;;;26.20;69.30;;;;;;6217711;23;20020;-89
2022/05/24 08:18:52;;;;;;;5.60;2.60;;;26.20;70.10;;;;;;6217857;23;20319;-87
2022/05/24 08:21:19;;;;;;;12.90;4.50;;;26.20;71.10;;;;;;6217471;23;20059;-86
2022/05/24 08:23:45;;;;;;;3.33;2.25;;;26.30;70.30;;;;;;6217241;23;20008;-86
2022/05/24 08:26:12;;;;;;;6.32;3.08;;;26.30;70.40;;;;;;6217026;23;19997;-86
2022/05/24 08:28:41;;;;;;;8.32;2.95;;;26.30;69.20;;;;;;6218062;23;20023;-88
2022/05/24 08:31:08;;;;;;;6.40;2.58;;;26.40;68.90;;;;;;6216303;23;20007;-87
2022/05/24 08:33:34;;;;;;;5.82;2.45;;;26.50;69.90;;;;;;6216757;23;20012;-87
2022/05/24 08:36:00;;;;;;;5.65;2.17;;;26.50;68.60;;;;;;6215856;23;20010;-87
2022/05/24 08:38:28;;;;;;;7.07;2.00;;;26.60;68.90;;;;;;6216467;23;20386;-87
2022/05/24 08:41:01;;;;;;;3.40;1.85;;;26.70;68.50;;;;;;6216418;23;20008;-87
2022/05/24 08:43:45;;;;;;;5.03;2.70;;;26.80;68.00;;;;;;6216262;23;20012;-88
2022/05/24 08:49:00;;;;;;;3.15;1.85;;;26.80;67.90;;;;;;6215285;23;20015;-89
2022/05/24 08:51:47;;;;;;;5.30;2.78;;;26.80;67.70;;;;;;6215124;23;20347;-88
2022/05/24 08:54:16;;;;;;;5.18;2.92;;;26.80;68.60;;;;;;6214331;23;20000;-88
2022/05/24 08:56:50;;;;;;;6.40;2.90;;;26.80;67.80;;;;;;6215308;23;20588;-87
2022/05/24 08:59:28;;;;;;;6.18;2.78;;;26.80;68.60;;;;;;6214602;23;20019;-87
2022/05/24 09:01:56;;;;;;;4.70;2.33;;;26.90;68.60;;;;;;6187573;23;20032;-86
2022/05/24 09:04:22;;;;;;;8.40;3.33;;;27.00;69.00;;;;;;6214284;23;20007;-88
2022/05/24 09:07:07;;;;;;;11.63;3.83;;;27.00;70.10;;;;;;6214735;23;20008;-88
2022/05/24 09:09:54;;;;;;;4.47;3.10;;;27.00;68.50;;;;;;6214753;23;19996;-88
2022/05/24 09:13:05;;;;;;;8.30;3.58;;;27.00;68.60;;;;;;6214823;23;20438;-88
2022/05/24 09:15:52;;;;;;;5.18;2.90;;;27.00;69.20;;;;;;6214407;23;20307;-88
2022/05/24 09:18:36;;;;;;;8.90;4.28;;;27.00;69.60;;;;;;6214177;23;20054;-88
2022/05/24 09:21:03;;;;;;;9.77;5.07;;;27.10;70.30;;;;;;6215006;23;20001;-89
2022/05/24 09:23:39;;;;;;;7.43;3.05;;;27.10;70.70;;;;;;6214366;23;20012;-88
2022/05/24 09:26:11;;;;;;;9.43;3.63;;;27.10;70.60;;;;;;6213855;23;20098;-87
2022/05/24 09:28:48;;;;;;;6.85;3.65;;;27.20;69.60;;;;;;6213342;23;20096;-86
2022/05/24 09:31:43;;;;;;;6.07;3.08;;;27.30;70.30;;;;;;6213544;23;19993;-85
2022/05/24 09:34:18;;;;;;;6.55;2.97;;;27.30;69.50;;;;;;6213981;23;20011;-87
2022/05/24 09:36:59;;;;;;;5.78;3.70;;;27.40;69.60;;;;;;6213872;23;20423;-87
2022/05/24 09:39:32;;;;;;;6.38;3.38;;;27.50;69.40;;;;;;6213674;23;20023;-86
2022/05/24 09:42:04;;;;;;;7.43;3.22;;;27.50;70.10;;;;;;6213963;23;20162;-85
2022/05/24 09:44:49;;;;;;;10.82;4.13;;;27.50;70.50;;;;;;6214115;23;20055;-87
2022/05/24 09:47:27;;;;;;;6.70;3.50;;;27.50;70.70;;;;;;6214068;23;20071;-87
2022/05/24 09:49:54;;;;;;;7.93;3.92;;;27.60;70.70;;;;;;6187195;23;20009;-86
2022/05/24 09:52:21;;;;;;;14.48;5.38;;;27.80;71.20;;;;;;6213810;23;20304;-86
2022/05/24 09:54:53;;;;;;;7.47;4.15;;;27.90;71.30;;;;;;6185510;23;20087;-89
2022/05/24 09:57:25;;;;;;;5.85;4.03;;;28.00;72.00;;;;;;6182765;23;20401;-85
2022/05/24 10:00:20;;;;;;;6.72;3.80;;;28.10;72.30;;;;;;6160940;23;1192917;-85
2022/05/24 10:02:47;;;;;;;8.05;4.47;;;28.20;71.30;;;;;;6214482;23;20004;-85
2022/05/24 10:05:22;;;;;;;14.13;6.85;;;28.30;71.60;;;;;;6214308;23;20004;-85
2022/05/24 10:07:59;;;;;;;9.25;4.57;;;28.30;70.70;;;;;;6216501;23;20039;-85
2022/05/24 10:10:32;;;;;;;12.57;5.38;;;28.30;71.50;;;;;;6217271;23;20122;-86
2022/05/24 10:13:35;;;;;;;9.18;4.32;;;28.30;72.20;;;;;;6217123;23;20000;-90
2022/05/24 10:16:26;;;;;;;9.23;3.92;;;28.40;72.10;;;;;;6217888;23;20396;-92
2022/05/24 10:19:21;;;;;;;7.25;4.13;;;28.50;72.10;;;;;;6216186;23;20427;-92
2022/05/24 10:22:09;;;;;;;8.60;4.50;;;28.40;71.60;;;;;;6217827;23;20419;-91
2022/05/24 10:24:43;;;;;;;13.75;5.97;;;28.40;72.30;;;;;;6217265;23;20060;-93
2022/05/24 10:27:31;;;;;;;8.07;4.75;;;28.40;70.60;;;;;;6218014;23;20326;-92
2022/05/24 10:30:02;;;;;;;14.35;5.95;;;28.30;71.80;;;;;;6216786;23;20379;-89
2022/05/24 10:38:55;;;;;;;10.93;5.07;;;28.20;72.00;;;;;;6217592;23;20292;-91
2022/05/24 10:41:33;;;;;;;10.35;4.50;;;28.10;72.20;;;;;;6217943;23;20004;-93
2022/05/24 10:44:20;;;;;;;9.93;4.97;;;28.10;72.60;;;;;;6217426;23;20011;-93
2022/05/24 10:47:01;;;;;;;12.10;4.65;;;28.20;72.30;;;;;;6217042;23;20323;-89
2022/05/24 10:49:48;;;;;;;9.70;5.22;;;28.30;72.40;;;;;;6190253;23;20367;-89
2022/05/24 10:52:50;;;;;;;8.45;4.35;;;28.30;72.60;;;;;;6216927;23;20028;-89
2022/05/24 10:55:21;;;;;;;14.63;6.50;;;28.30;72.70;;;;;;6186997;23;20447;-91
2022/05/24 10:57:59;;;;;;;10.32;5.05;;;28.30;72.40;;;;;;6217480;23;20000;-89
2022/05/24 11:00:49;;;;;;;8.07;5.53;;;28.30;72.50;;;;;;6216774;23;20032;-90
2022/05/24 11:03:24;;;;;;;12.55;5.28;;;28.30;72.00;;;;;;6216948;23;20012;-90
2022/05/24 11:05:59;;;;;;;12.20;5.03;;;28.30;72.10;;;;;;6191949;23;20375;-90
2022/05/24 11:08:49;;;;;;;8.82;4.55;;;28.40;72.40;;;;;;6217646;23;19996;-89
2022/05/24 11:11:34;;;;;;;7.43;4.35;;;28.50;72.70;;;;;;6190846;23;20323;-89
2022/05/24 11:14:11;;;;;;;10.60;4.50;;;28.70;72.10;;;;;;6217076;23;20005;-90
2022/05/24 11:16:43;;;;;;;13.45;5.82;;;28.90;71.60;;;;;;6217087;23;20080;-87
2022/05/24 11:19:18;;;;;;;8.77;4.63;;;29.00;71.40;;;;;;6218239;23;20005;-93
2022/05/24 11:22:05;;;;;;;8.05;4.28;;;29.00;70.50;;;;;;6217250;23;20365;-90
2022/05/24 11:24:35;;;;;;;8.50;4.75;;;29.00;70.20;;;;;;6216609;23;20005;-90
2022/05/24 11:27:05;;;;;;;9.88;4.88;;;29.00;70.10;;;;;;6217650;23;20305;-90
2022/05/24 11:29:54;;;;;;;6.65;4.13;;;28.90;69.80;;;;;;6217025;23;20127;-88
2022/05/24 11:32:44;;;;;;;9.35;4.90;;;28.90;70.00;;;;;;6217080;23;20005;-88
2022/05/24 11:35:12;;;;;;;;;;;28.90;69.20;;;;;;6218204;23;20416;-88
2022/05/24 11:37:41;;;;;;;8.30;3.88;;;28.90;68.80;;;;;;6190892;23;19907;-91
2022/05/24 11:40:36;;;;;;;6.82;3.80;;;29.10;69.10;;;;;;6217012;23;20437;-89
2022/05/24 11:43:43;;;;;;;8.15;3.88;;;29.10;67.90;;;;;;6216072;23;20000;-90
2022/05/24 11:46:15;;;;;;;8.95;5.22;;;29.10;67.50;;;;;;6217722;23;20419;-88
2022/05/24 11:48:50;;;;;;;8.98;4.60;;;28.90;66.50;;;;;;6217318;23;20008;-93
2022/05/24 11:51:41;;;;;;;7.45;4.47;;;28.80;67.10;;;;;;6217070;23;20007;-90
2022/05/24 11:54:29;;;;;;;8.50;3.95;;;28.70;67.60;;;;;;6202578;23;20020;-90
2022/05/24 11:57:16;;;;;;;6.13;3.95;;;28.60;67.70;;;;;;6190133;23;20478;-90
2022/05/24 11:59:48;;;;;;;9.15;3.85;;;28.60;67.90;;;;;;6216004;23;20021;-91
2022/05/24 12:02:19;;;;;;;8.68;4.28;;;28.60;67.50;;;;;;6216348;23;20008;-91
2022/05/24 12:08:27;;;;;;;7.32;3.72;;;28.50;67.10;;;;;;6199573;23;20475;-89
2022/05/24 12:11:04;;;;;;;5.28;2.95;;;28.80;67.50;;;;;;6216328;23;20007;-90
2022/05/24 12:13:44;;;;;;;4.28;2.75;;;29.20;66.30;;;;;;6188799;23;20016;-91
2022/05/24 12:16:33;;;;;;;5.90;2.83;;;29.70;66.70;;;;;;6216061;23;20071;-89
2022/05/24 12:19:03;;;;;;;6.93;3.10;;;30.20;63.80;;;;;;6189643;23;20000;-89
2022/05/24 12:21:41;;;;;;;8.25;3.25;;;30.50;62.90;;;;;;6215911;23;20004;-88
2022/05/24 12:24:36;;;;;;;9.40;3.10;;;30.90;60.40;;;;;;6214866;23;20008;-88
2022/05/24 12:27:22;;;;;;;6.50;2.72;;;30.90;60.10;;;;;;6215652;23;20344;-90
2022/05/24 12:30:20;;;;;;;3.85;2.60;;;31.00;60.00;;;;;;6215332;23;20012;-87
2022/05/24 12:32:46;;;;;;;7.00;2.50;;;31.30;58.90;;;;;;6164466;23;20375;-88
2022/05/24 12:35:14;;;;;;;4.70;2.00;;;31.50;56.10;;;;;;6216067;23;19996;-90
2022/05/24 12:37:55;;;;;;;3.13;2.25;;;31.80;57.10;;;;;;6217735;23;20001;-91
2022/05/24 12:40:22;;;;;;;3.53;1.70;;;32.10;54.50;;;;;;6216212;23;20331;-92
2022/05/24 12:42:52;;;;;;;5.40;1.90;;;32.10;55.90;;;;;;6189546;23;20425;-89
2022/05/24 12:45:25;;;;;;;4.38;2.30;;;32.20;54.20;;;;;;6214447;23;20001;-81
2022/05/24 12:47:53;;;;;;;6.75;2.13;;;32.20;53.90;;;;;;6187643;23;20004;-82
2022/05/24 12:50:37;;;;;;;6.53;2.60;;;32.00;54.40;;;;;;6214748;23;20382;-82
2022/05/24 12:53:07;;;;;;;6.43;1.67;;;31.90;54.50;;;;;;6214468;23;20005;-82
2022/05/24 12:58:40;;;;;;;3.67;2.05;;;32.10;55.00;;;;;;6212991;23;20090;-89
2022/05/24 13:01:15;;;;;;;5.35;1.88;;;32.30;54.50;;;;;;6215771;23;20023;-89
2022/05/24 13:03:46;;;;;;;4.03;1.83;;;32.40;54.00;;;;;;6215162;23;20028;-89
2022/05/24 13:06:23;;;;;;;3.08;2.15;;;32.50;55.00;;;;;;6214902;23;20007;-93
2022/05/24 13:09:18;;;;;;;6.15;2.33;;;32.80;53.00;;;;;;6215820;23;20001;-89
2022/05/24 13:11:47;;;;;;;4.30;2.05;;;32.80;53.40;;;;;;6190132;23;20084;-91
2022/05/24 13:14:48;;;;;;;4.38;2.20;;;32.80;53.50;;;;;;6189264;23;20008;-87
2022/05/24 13:17:18;;;;;;;9.45;2.95;;;32.80;52.30;;;;;;6176902;23;20012;-88
2022/05/24 13:19:50;;;;;;;;;;;32.60;52.40;;;;;;6214002;23;20009;-88
2022/05/24 13:22:16;;;;;;;3.55;2.33;;;32.40;54.10;;;;;;6186588;23;19900;-89
2022/05/24 13:24:55;;;;;;;4.60;1.83;;;32.40;54.00;;;;;;6187010;23;20054;-88
2022/05/24 13:27:21;;;;;;;;;;;32.50;54.40;;;;;;6214317;23;20008;-87
2022/05/24 13:35:42;;;;;;;;;;;32.40;55.00;;;;;;6158341;23;20114;-87
2022/05/24 13:38:08;;;;;;;5.03;2.38;;;32.30;54.10;;;;;;6186776;23;19911;-88
2022/05/24 13:40:51;;;;;;;4.85;2.45;;;32.20;55.40;;;;;;6214451;23;20011;-88
2022/05/24 13:43:41;;;;;;;9.88;3.42;;;32.20;56.10;;;;;;6216522;23;20004;-88
2022/05/24 13:46:12;;;;;;;8.05;2.78;;;32.00;57.00;;;;;;6216601;23;20050;-88
2022/05/24 13:48:44;;;;;;;13.45;3.38;;;31.90;57.60;;;;;;6215009;23;20000;-86
2022/05/24 13:51:32;;;;;;;7.00;2.78;;;31.70;58.10;;;;;;6187463;23;20362;-86
2022/05/24 13:53:58;;;;;;;7.45;2.63;;;31.80;57.20;;;;;;6214329;23;20005;-86
2022/05/24 13:56:34;;;;;;;6.72;2.78;;;31.80;57.10;;;;;;6215146;23;20001;-86
2022/05/24 13:59:21;;;;;;;14.23;4.55;;;31.90;57.60;;;;;;6214606;23;20007;-86
2022/05/24 14:01:52;;;;;;;14.57;4.53;;;31.90;57.70;;;;;;6214869;23;20036;-87